createdAt,value
2019-06-20T00:01:51.251Z,22.10
2019-06-20T00:04:20.266Z,22.00
2019-06-20T00:06:49.136Z,22.00
2019-06-20T00:09:18.100Z,22.00
2019-06-20T00:11:46.948Z,21.90
2019-06-20T00:14:15.878Z,21.80
2019-06-20T00:16:44.797Z,21.80
2019-06-20T00:19:13.762Z,21.70
2019-06-20T00:21:42.632Z,21.70
2019-06-20T00:24:11.546Z,21.70
2019-06-20T00:26:40.427Z,21.70
2019-06-20T00:29:09.344Z,21.60
2019-06-20T00:31:38.208Z,21.50
2019-06-20T00:34:07.131Z,21.40
2019-06-20T00:36:36.019Z,21.40
2019-06-20T00:39:07.431Z,21.50
2019-06-20T00:41:36.491Z,21.50
2019-06-20T00:44:05.615Z,21.40
2019-06-20T00:46:34.492Z,21.30
2019-06-20T00:49:03.402Z,21.40
2019-06-20T00:51:32.388Z,21.30
2019-06-20T00:54:01.248Z,21.20
2019-06-20T00:56:30.168Z,21.20
2019-06-20T00:58:59.029Z,21.20
2019-06-20T01:01:27.966Z,21.10
2019-06-20T01:03:56.844Z,21.20
2019-06-20T01:06:25.787Z,21.10
2019-06-20T01:08:54.628Z,21.20
2019-06-20T01:11:23.570Z,21.10
2019-06-20T01:13:52.975Z,21.10
2019-06-20T01:16:22.071Z,21.20
2019-06-20T01:18:50.965Z,21.20
2019-06-20T01:21:19.963Z,21.30
2019-06-20T01:23:48.842Z,21.30
2019-06-20T01:26:17.745Z,21.30
2019-06-20T01:28:46.619Z,21.30
2019-06-20T01:31:15.528Z,21.30
2019-06-20T01:33:44.401Z,21.40
2019-06-20T01:36:13.424Z,21.40
2019-06-20T01:38:42.291Z,21.40
2019-06-20T01:41:11.212Z,21.40
2019-06-20T01:43:50.167Z,21.50
2019-06-20T01:46:10.647Z,21.60
2019-06-20T01:48:39.511Z,21.50
2019-06-20T01:51:08.425Z,21.60
2019-06-20T01:53:37.305Z,21.70
2019-06-20T01:56:06.216Z,21.70
2019-06-20T01:58:35.092Z,21.70
2019-06-20T02:01:04.029Z,21.70
2019-06-20T02:03:33.005Z,21.70
2019-06-20T02:06:01.920Z,21.70
2019-06-20T02:08:30.797Z,21.70
2019-06-20T02:10:59.708Z,21.60
2019-06-20T02:13:28.588Z,21.60
2019-06-20T02:15:57.492Z,21.50
2019-06-20T02:18:26.382Z,21.30
2019-06-20T02:20:57.932Z,21.30
2019-06-20T02:23:26.801Z,21.20
2019-06-20T02:25:55.762Z,21.20
2019-06-20T02:28:24.940Z,21.20
2019-06-20T02:30:53.849Z,21.20
2019-06-20T02:33:22.758Z,21.20
2019-06-20T02:35:51.636Z,21.00
2019-06-20T02:38:20.508Z,21.00
2019-06-20T02:40:49.391Z,21.00
2019-06-20T02:43:18.495Z,21.00
2019-06-20T02:45:47.376Z,21.00
2019-06-20T02:48:16.286Z,21.00
2019-06-20T02:50:45.165Z,21.00
2019-06-20T02:53:14.060Z,20.80
2019-06-20T02:55:42.937Z,20.80
2019-06-20T02:58:11.847Z,20.70
2019-06-20T03:00:55.459Z,20.50
2019-06-20T03:03:24.665Z,20.40
2019-06-20T03:05:53.650Z,20.40
2019-06-20T03:08:22.554Z,20.40
2019-06-20T03:10:51.438Z,20.50
2019-06-20T03:13:20.477Z,20.50
2019-06-20T03:15:50.175Z,20.40
2019-06-20T03:18:19.272Z,20.50
2019-06-20T03:20:48.190Z,20.40
2019-06-20T03:23:17.078Z,20.50
2019-06-20T03:25:45.942Z,20.60
2019-06-20T03:28:14.851Z,20.70
2019-06-20T03:30:43.731Z,20.70
2019-06-20T03:33:12.655Z,20.70
2019-06-20T03:35:41.619Z,20.60
2019-06-20T03:38:10.529Z,20.60
2019-06-20T03:40:39.414Z,20.50
2019-06-20T03:43:08.324Z,20.60
2019-06-20T03:45:37.192Z,20.60
2019-06-20T03:48:06.265Z,20.60
2019-06-20T03:50:35.176Z,20.60
2019-06-20T03:53:04.099Z,20.60
2019-06-20T03:55:33.480Z,20.60
2019-06-20T03:58:02.904Z,20.60
2019-06-20T04:00:34.477Z,20.60
2019-06-20T04:03:03.916Z,20.60
2019-06-20T04:05:32.762Z,20.60
2019-06-20T04:08:01.683Z,20.60
2019-06-20T04:10:30.556Z,20.60
2019-06-20T04:12:59.469Z,20.60
2019-06-20T04:15:28.350Z,20.60
2019-06-20T04:17:57.273Z,20.50
2019-06-20T04:20:26.132Z,20.40
2019-06-20T04:22:55.082Z,20.40
2019-06-20T04:25:23.940Z,20.50
2019-06-20T04:27:52.862Z,20.40
2019-06-20T04:30:22.714Z,20.60
2019-06-20T04:32:51.642Z,20.50
2019-06-20T04:35:20.514Z,20.60
2019-06-20T04:37:49.536Z,20.80
2019-06-20T04:40:18.611Z,20.70
2019-06-20T04:42:47.530Z,20.70
2019-06-20T04:45:34.163Z,20.70
2019-06-20T04:47:51.303Z,20.70
2019-06-20T04:50:20.165Z,20.70
2019-06-20T04:52:49.045Z,20.70
2019-06-20T04:55:17.959Z,20.70
2019-06-20T04:57:46.832Z,20.70
2019-06-20T05:00:15.754Z,20.80
2019-06-20T05:02:44.634Z,20.80
2019-06-20T05:05:13.891Z,20.80
2019-06-20T05:07:42.927Z,20.80
2019-06-20T05:10:12.436Z,21.00
2019-06-20T05:12:41.327Z,21.00
2019-06-20T05:15:10.451Z,21.10
2019-06-20T05:17:39.313Z,21.20
2019-06-20T05:20:08.743Z,21.30
2019-06-20T05:22:37.611Z,21.40
2019-06-20T05:25:06.944Z,21.50
2019-06-20T05:27:35.825Z,21.60
2019-06-20T05:30:10.311Z,21.70
2019-06-20T05:32:39.284Z,21.70
2019-06-20T05:35:09.200Z,21.70
2019-06-20T05:37:38.066Z,21.90
2019-06-20T05:40:08.473Z,21.90
2019-06-20T05:42:37.359Z,21.90
2019-06-20T05:45:07.945Z,22.00
2019-06-20T05:47:36.824Z,21.90
2019-06-20T05:50:08.331Z,22.10
2019-06-20T05:52:37.217Z,22.20
2019-06-20T05:55:09.142Z,22.40
2019-06-20T05:57:38.029Z,22.60
2019-06-20T06:00:08.812Z,22.80
2019-06-20T06:02:37.904Z,22.90
2019-06-20T06:05:07.125Z,22.90
2019-06-20T06:07:35.994Z,23.00
2019-06-20T06:10:09.270Z,22.90
2019-06-20T06:12:38.160Z,22.70
2019-06-20T06:15:07.870Z,22.80
2019-06-20T06:17:36.737Z,22.80
2019-06-20T06:20:08.032Z,22.80
2019-06-20T06:22:36.958Z,22.80
2019-06-20T06:25:07.738Z,22.80
2019-06-20T06:27:37.565Z,22.90
2019-06-20T06:30:11.985Z,23.20
2019-06-20T06:32:41.342Z,23.50
2019-06-20T06:35:11.758Z,23.50
2019-06-20T06:37:41.408Z,23.70
2019-06-20T06:40:12.112Z,23.90
2019-06-20T06:42:41.083Z,23.90
2019-06-20T06:45:11.484Z,24.10
2019-06-20T06:47:40.362Z,24.20
2019-06-20T06:50:10.877Z,24.30
2019-06-20T06:52:40.055Z,24.40
2019-06-20T06:55:10.756Z,24.60
2019-06-20T06:57:39.700Z,24.70
2019-06-20T07:00:12.862Z,24.80
2019-06-20T07:02:41.747Z,25.10
2019-06-20T07:05:10.853Z,25.40
2019-06-20T07:07:39.827Z,25.50
2019-06-20T07:10:09.552Z,25.60
2019-06-20T07:12:38.456Z,25.60
2019-06-20T07:15:09.332Z,25.70
2019-06-20T07:17:38.208Z,26.00
2019-06-20T07:20:08.335Z,25.70
2019-06-20T07:22:37.740Z,25.70
2019-06-20T07:25:07.738Z,25.50
2019-06-20T07:27:36.847Z,25.60
2019-06-20T07:30:11.401Z,25.20
2019-06-20T07:32:40.838Z,25.30
2019-06-20T07:35:10.188Z,25.50
2019-06-20T07:37:39.107Z,25.50
2019-06-20T07:40:10.462Z,25.40
2019-06-20T07:42:39.589Z,25.20
2019-06-20T07:45:10.244Z,25.10
2019-06-20T07:47:39.681Z,24.80
2019-06-20T07:50:10.851Z,24.40
2019-06-20T07:52:40.057Z,24.20
2019-06-20T07:55:10.147Z,23.80
2019-06-20T07:57:39.625Z,23.60
2019-06-20T08:00:12.067Z,23.40
2019-06-20T08:02:41.149Z,23.30
2019-06-20T08:05:12.634Z,23.00
2019-06-20T08:07:41.617Z,23.00
2019-06-20T08:10:14.647Z,23.00
2019-06-20T08:12:42.725Z,23.20
2019-06-20T08:15:15.520Z,23.30
2019-06-20T08:17:43.600Z,23.50
2019-06-20T08:20:13.540Z,23.70
2019-06-20T08:22:42.465Z,23.70
2019-06-20T08:25:13.772Z,23.70
2019-06-20T08:27:55.978Z,23.90
2019-06-20T08:30:33.617Z,23.90
2019-06-20T08:33:08.723Z,23.80
2019-06-20T08:35:33.639Z,23.70
2019-06-20T08:38:03.590Z,23.80
2019-06-20T08:40:36.460Z,23.90
2019-06-20T08:43:06.299Z,24.20
2019-06-20T08:45:36.344Z,24.60
2019-06-20T08:48:05.373Z,25.10
2019-06-20T08:50:34.734Z,25.40
2019-06-20T08:53:03.938Z,25.90
2019-06-20T08:55:32.922Z,26.00
2019-06-20T08:58:03.294Z,26.10
2019-06-20T09:00:35.353Z,26.50
2019-06-20T09:03:05.601Z,26.50
2019-06-20T09:05:34.676Z,26.60
2019-06-20T09:10:37.933Z,27.00
2019-06-20T09:13:07.617Z,26.90
2019-06-20T09:15:37.090Z,26.70
2019-06-20T09:18:06.414Z,26.70
2019-06-20T09:20:35.587Z,26.60
2019-06-20T09:23:05.038Z,26.20
2019-06-20T09:25:34.148Z,26.10
2019-06-20T09:28:03.312Z,25.90
2019-06-20T09:30:32.322Z,26.20
2019-06-20T09:33:01.254Z,26.40
2019-06-20T09:35:30.133Z,26.90
2019-06-20T09:37:59.315Z,27.40
2019-06-20T09:40:28.718Z,27.80
2019-06-20T09:42:58.783Z,28.10
2019-06-20T09:45:27.835Z,27.70
2019-06-20T09:47:58.114Z,27.70
2019-06-20T09:50:28.271Z,27.40
2019-06-20T09:52:58.300Z,27.20
2019-06-20T09:55:27.385Z,27.20
2019-06-20T09:57:56.296Z,27.10
2019-06-20T10:00:27.370Z,27.10
2019-06-20T10:02:57.741Z,27.30
2019-06-20T10:05:27.082Z,27.10
2019-06-20T10:07:56.691Z,27.20
2019-06-20T10:10:31.064Z,27.20
2019-06-20T10:13:00.076Z,26.70
2019-06-20T10:15:33.807Z,26.40
2019-06-20T10:18:02.747Z,26.40
2019-06-20T10:20:32.011Z,26.90
2019-06-20T10:23:00.880Z,27.10
2019-06-20T10:25:29.797Z,27.20
2019-06-20T10:27:58.770Z,27.10
2019-06-20T10:30:28.023Z,27.30
2019-06-20T10:32:57.714Z,26.90
2019-06-20T10:35:27.135Z,26.80
2019-06-20T10:37:57.234Z,26.90
2019-06-20T10:40:26.837Z,26.80
2019-06-20T10:42:56.914Z,26.80
2019-06-20T10:45:27.163Z,26.70
2019-06-20T10:47:56.270Z,26.60
2019-06-20T10:50:25.438Z,26.50
2019-06-20T10:52:54.907Z,26.40
2019-06-20T10:55:23.937Z,26.30
2019-06-20T10:57:52.898Z,26.40
2019-06-20T11:00:31.347Z,26.40
2019-06-20T11:02:55.179Z,26.60
2019-06-20T11:05:24.570Z,26.90
2019-06-20T11:07:53.523Z,27.20
2019-06-20T11:10:24.112Z,27.40
2019-06-20T11:12:55.931Z,27.50
2019-06-20T11:15:23.629Z,27.40
2019-06-20T11:17:55.947Z,27.30
2019-06-20T11:20:24.535Z,27.30
2019-06-20T11:22:53.434Z,27.30
2019-06-20T11:25:22.547Z,27.20
2019-06-20T11:27:51.439Z,27.50
2019-06-20T11:30:44.809Z,27.80
2019-06-20T11:33:01.766Z,27.60
2019-06-20T11:35:30.677Z,27.50
2019-06-20T11:37:59.566Z,27.50
2019-06-20T11:40:28.589Z,27.50
2019-06-20T11:42:57.505Z,27.40
2019-06-20T11:45:26.588Z,27.60
2019-06-20T11:47:55.563Z,27.60
2019-06-20T11:50:24.571Z,27.60
2019-06-20T11:52:53.453Z,27.50
2019-06-20T11:55:22.470Z,28.00
2019-06-20T11:57:51.336Z,28.30
2019-06-20T12:00:21.151Z,28.30
2019-06-20T12:02:50.351Z,28.40
2019-06-20T12:05:19.642Z,28.30
2019-06-20T12:07:49.909Z,28.30
2019-06-20T12:10:19.539Z,27.90
2019-06-20T12:12:49.186Z,27.60
2019-06-20T12:15:18.831Z,27.40
2019-06-20T12:17:49.145Z,27.40
2019-06-20T12:20:18.864Z,27.40
2019-06-20T12:22:50.523Z,27.20
2019-06-20T12:25:18.902Z,27.30
2019-06-20T12:27:51.350Z,27.20
2019-06-20T12:30:23.092Z,27.30
2019-06-20T12:32:57.400Z,27.20
2019-06-20T12:35:26.745Z,27.70
2019-06-20T12:37:55.966Z,28.10
2019-06-20T12:40:25.358Z,28.20
2019-06-20T12:42:54.616Z,28.10
2019-06-20T12:45:23.942Z,28.20
2019-06-20T12:47:53.145Z,28.30
2019-06-20T12:50:22.145Z,28.50
2019-06-20T12:52:52.717Z,28.30
2019-06-20T12:55:27.533Z,28.30
2019-06-20T12:57:56.957Z,27.90
2019-06-20T13:00:27.519Z,27.80
2019-06-20T13:02:58.156Z,27.90
2019-06-20T13:05:41.462Z,27.90
2019-06-20T13:08:09.957Z,27.60
2019-06-20T13:10:40.356Z,26.90
2019-06-20T13:13:09.458Z,26.90
2019-06-20T13:15:39.105Z,26.70
2019-06-20T13:18:08.924Z,26.50
2019-06-20T13:20:39.422Z,26.30
2019-06-20T13:23:08.378Z,26.10
2019-06-20T13:25:37.757Z,25.90
2019-06-20T13:28:07.842Z,25.80
2019-06-20T13:30:36.737Z,25.70
2019-06-20T13:33:05.649Z,25.40
2019-06-20T13:35:34.528Z,25.20
2019-06-20T13:38:03.462Z,24.90
2019-06-20T13:40:32.318Z,24.80
2019-06-20T13:43:01.241Z,24.70
2019-06-20T13:45:30.130Z,24.70
2019-06-20T13:47:59.033Z,24.60
2019-06-20T13:50:28.220Z,24.40
2019-06-20T13:52:57.130Z,24.30
2019-06-20T13:55:25.998Z,24.20
2019-06-20T13:57:55.018Z,24.10
2019-06-20T14:00:24.975Z,24.00
2019-06-20T14:02:54.118Z,23.90
2019-06-20T14:05:22.960Z,23.70
2019-06-20T14:07:55.440Z,23.60
2019-06-20T14:10:22.993Z,23.50
2019-06-20T14:12:51.902Z,23.00
2019-06-20T14:15:23.940Z,23.00
2019-06-20T14:17:53.685Z,22.70
2019-06-20T14:20:22.765Z,22.50
2019-06-20T14:22:52.242Z,22.00
2019-06-20T14:25:21.345Z,21.50
2019-06-20T14:27:51.625Z,20.90
2019-06-20T14:30:21.137Z,20.30
2019-06-20T14:32:51.291Z,19.90
2019-06-20T14:35:21.126Z,19.50
2019-06-20T14:37:51.679Z,19.20
2019-06-20T14:40:21.076Z,18.90
2019-06-20T14:42:50.376Z,18.80
2019-06-20T14:45:19.888Z,18.70
2019-06-20T14:47:48.862Z,18.70
2019-06-20T14:50:17.835Z,18.60
2019-06-20T14:52:48.526Z,18.60
2019-06-20T14:55:17.853Z,18.50
2019-06-20T14:57:48.524Z,18.60
2019-06-20T15:00:18.635Z,18.60
2019-06-20T15:02:51.810Z,18.90
2019-06-20T15:05:19.465Z,18.90
2019-06-20T15:07:49.578Z,18.90
2019-06-20T15:10:19.534Z,18.90
2019-06-20T15:12:51.349Z,19.00
2019-06-20T15:15:19.167Z,19.00
2019-06-20T15:17:50.274Z,19.10
2019-06-20T15:20:18.824Z,19.20
2019-06-20T15:22:49.307Z,19.30
2019-06-20T15:25:19.103Z,19.40
2019-06-20T15:27:50.251Z,19.50
2019-06-20T15:30:19.629Z,19.70
2019-06-20T15:33:01.120Z,19.80
2019-06-20T15:35:19.169Z,19.90
2019-06-20T15:37:49.733Z,20.00
2019-06-20T15:40:19.289Z,19.70
2019-06-20T15:42:53.524Z,19.40
2019-06-20T15:45:22.839Z,19.50
2019-06-20T15:47:51.741Z,19.40
2019-06-20T15:50:21.148Z,19.50
2019-06-20T15:52:50.039Z,19.60
2019-06-20T15:55:21.675Z,19.60
2019-06-20T15:57:54.328Z,19.70
2019-06-20T16:00:28.557Z,20.20
2019-06-20T16:03:09.534Z,20.00
2019-06-20T16:05:28.111Z,20.20
2019-06-20T16:08:01.946Z,20.40
2019-06-20T16:10:32.961Z,20.80
2019-06-20T16:13:04.845Z,21.20
2019-06-20T16:15:35.637Z,21.70
2019-06-20T16:18:05.839Z,22.40
2019-06-20T16:20:36.390Z,22.70
2019-06-20T16:23:06.451Z,23.00
2019-06-20T16:25:36.535Z,23.50
2019-06-20T16:28:05.454Z,23.80
2019-06-20T16:30:34.368Z,23.80
2019-06-20T16:33:04.443Z,23.80
2019-06-20T16:35:37.002Z,23.60
2019-06-20T16:38:08.026Z,23.00
2019-06-20T16:40:46.694Z,22.60
2019-06-20T16:43:17.318Z,22.80
2019-06-20T16:45:50.014Z,23.10
2019-06-20T16:48:20.654Z,22.90
2019-06-20T16:50:51.588Z,22.90
2019-06-20T16:53:21.726Z,23.10
2019-06-20T16:55:52.083Z,23.30
2019-06-20T16:58:22.705Z,23.60
2019-06-20T17:00:54.478Z,23.80
2019-06-20T17:03:41.092Z,24.00
2019-06-20T17:06:02.956Z,23.70
2019-06-20T17:08:31.711Z,23.60
2019-06-20T17:11:02.912Z,23.60
2019-06-20T17:13:34.130Z,23.10
2019-06-20T17:16:03.332Z,22.60
2019-06-20T17:18:34.289Z,22.20
2019-06-20T17:21:03.205Z,21.90
2019-06-20T17:23:32.063Z,21.80
2019-06-20T17:26:01.656Z,21.70
2019-06-20T17:28:30.669Z,21.70
2019-06-20T17:30:59.593Z,21.90
2019-06-20T17:33:28.478Z,22.00
2019-06-20T17:35:57.401Z,22.10
2019-06-20T17:38:26.299Z,22.20
2019-06-20T17:40:55.184Z,22.30
2019-06-20T17:43:24.042Z,22.10
2019-06-20T17:45:52.960Z,22.10
2019-06-20T17:48:21.836Z,22.00
2019-06-20T17:50:50.738Z,22.00
2019-06-20T17:53:19.856Z,21.90
2019-06-20T17:55:48.729Z,21.90
2019-06-20T18:01:14.103Z,21.80
2019-06-20T18:03:44.433Z,21.70
2019-06-20T18:06:16.835Z,21.60
2019-06-20T18:08:47.857Z,21.50
2019-06-20T18:11:16.772Z,21.50
2019-06-20T18:13:45.639Z,21.50
2019-06-20T18:16:24.536Z,21.50
2019-06-20T18:18:45.197Z,21.40
2019-06-20T18:21:14.061Z,21.40
2019-06-20T18:23:42.979Z,21.40
2019-06-20T18:26:11.867Z,21.40
2019-06-20T18:28:40.782Z,21.20
2019-06-20T18:31:09.651Z,21.10
2019-06-20T18:33:38.563Z,21.20
2019-06-20T18:36:07.449Z,21.10
2019-06-20T18:38:36.354Z,21.10
2019-06-20T18:41:05.232Z,21.00
2019-06-20T18:43:34.298Z,21.00
2019-06-20T18:46:03.323Z,21.00
2019-06-20T18:48:32.491Z,21.00
2019-06-20T18:51:06.910Z,21.00
2019-06-20T18:53:57.594Z,20.90
2019-06-20T18:56:26.115Z,20.80
2019-06-20T18:59:03.324Z,20.70
2019-06-20T19:01:33.371Z,20.60
2019-06-20T19:04:02.405Z,20.50
2019-06-20T19:06:35.968Z,20.40
2019-06-20T19:09:01.994Z,20.40
2019-06-20T19:11:30.868Z,20.30
2019-06-20T19:13:59.808Z,20.20
2019-06-20T19:16:28.710Z,20.20
2019-06-20T19:18:57.650Z,20.10
2019-06-20T19:21:27.868Z,20.00
2019-06-20T19:23:56.977Z,19.90
2019-06-20T19:26:25.850Z,19.80
2019-06-20T19:28:54.764Z,19.80
2019-06-20T19:31:24.213Z,19.80
2019-06-20T19:33:53.320Z,19.80
2019-06-20T19:36:22.345Z,19.70
2019-06-20T19:38:51.423Z,19.70
2019-06-20T19:41:20.282Z,19.70
2019-06-20T19:43:49.268Z,19.70
2019-06-20T19:46:18.336Z,19.60
2019-06-20T19:48:47.307Z,19.60
2019-06-20T19:51:16.209Z,19.50
2019-06-20T19:53:46.022Z,19.60
2019-06-20T19:56:15.197Z,19.50
2019-06-20T19:58:45.276Z,19.50
2019-06-20T20:01:14.168Z,19.40
2019-06-20T20:03:43.065Z,19.40
2019-06-20T20:06:11.939Z,19.40
2019-06-20T20:08:40.956Z,19.40
2019-06-20T20:11:09.829Z,19.30
2019-06-20T20:13:38.775Z,19.30
2019-06-20T20:16:07.609Z,19.20
2019-06-20T20:18:36.517Z,19.10
2019-06-20T20:21:05.397Z,19.10
2019-06-20T20:23:34.363Z,19.10
2019-06-20T20:26:03.234Z,19.10
2019-06-20T20:28:32.143Z,19.00
2019-06-20T20:31:01.089Z,19.10
2019-06-20T20:33:30.044Z,19.00
2019-06-20T20:36:01.785Z,19.00
2019-06-20T20:38:29.603Z,19.00
2019-06-20T20:40:58.449Z,19.00
2019-06-20T20:43:27.392Z,18.90
2019-06-20T20:45:56.317Z,18.90
2019-06-20T20:48:25.175Z,18.80
2019-06-20T20:50:54.095Z,18.80
2019-06-20T20:53:23.054Z,18.80
2019-06-20T20:55:51.961Z,18.80
2019-06-20T20:58:20.892Z,18.70
2019-06-20T21:00:55.533Z,18.80
2019-06-20T21:03:24.425Z,18.70
2019-06-20T21:05:53.339Z,18.70
2019-06-20T21:08:22.201Z,18.70
2019-06-20T21:10:51.118Z,18.60
2019-06-20T21:13:19.986Z,18.60
2019-06-20T21:15:48.890Z,18.60
2019-06-20T21:18:17.766Z,18.50
2019-06-20T21:20:46.777Z,18.50
2019-06-20T21:23:15.657Z,18.60
2019-06-20T21:25:44.550Z,18.60
2019-06-20T21:28:13.432Z,18.50
2019-06-20T21:30:42.343Z,18.50
2019-06-20T21:33:11.219Z,18.50
2019-06-20T21:35:40.251Z,18.40
2019-06-20T21:38:09.096Z,18.30
2019-06-20T21:40:38.012Z,18.30
2019-06-20T21:43:06.869Z,18.20
2019-06-20T21:45:35.832Z,18.30
2019-06-20T21:48:05.100Z,18.30
2019-06-20T21:50:34.024Z,18.20
2019-06-20T21:53:02.889Z,18.30
2019-06-20T21:55:31.810Z,18.30
2019-06-20T21:58:00.695Z,18.20
2019-06-20T22:00:41.935Z,18.20
2019-06-20T22:03:11.424Z,18.20
2019-06-20T22:05:40.525Z,18.20
2019-06-20T22:08:09.589Z,18.10
2019-06-20T22:10:38.601Z,18.10
2019-06-20T22:13:07.660Z,18.20
2019-06-20T22:15:36.706Z,18.10
2019-06-20T22:18:05.898Z,18.10
2019-06-20T22:20:34.895Z,18.00
2019-06-20T22:23:03.785Z,18.10
2019-06-20T22:25:32.677Z,18.10
2019-06-20T22:28:02.945Z,18.10
2019-06-20T22:30:52.914Z,18.00
2019-06-20T22:33:22.178Z,18.00
2019-06-20T22:35:51.090Z,18.00
2019-06-20T22:38:19.966Z,18.00
2019-06-20T22:40:48.925Z,18.00
2019-06-20T22:43:17.946Z,17.80
2019-06-20T22:45:46.957Z,17.70
2019-06-20T22:48:15.842Z,17.70
2019-06-20T22:50:44.715Z,17.70
2019-06-20T22:53:13.619Z,17.80
2019-06-20T22:55:42.496Z,17.70
2019-06-20T22:58:11.471Z,17.70
2019-06-20T23:00:40.575Z,17.70
2019-06-20T23:03:09.591Z,17.70
2019-06-20T23:05:38.470Z,17.80
2019-06-20T23:08:07.397Z,17.60
2019-06-20T23:10:36.265Z,17.60
2019-06-20T23:13:05.486Z,17.60
2019-06-20T23:15:34.344Z,17.70
2019-06-20T23:18:03.252Z,17.70
2019-06-20T23:20:32.137Z,17.70
2019-06-20T23:23:01.041Z,17.70
2019-06-20T23:25:29.926Z,17.70
2019-06-20T23:27:58.847Z,17.70
2019-06-20T23:30:27.825Z,17.70
2019-06-20T23:32:56.740Z,17.60
2019-06-20T23:35:25.605Z,17.60
2019-06-20T23:37:54.516Z,17.60
2019-06-20T23:40:23.396Z,17.60
2019-06-20T23:42:52.295Z,17.50
2019-06-20T23:45:21.458Z,17.50
2019-06-20T23:47:50.363Z,17.50
2019-06-20T23:50:19.271Z,17.50
2019-06-20T23:53:00.349Z,17.50
2019-06-20T23:55:29.237Z,17.50
2019-06-20T23:57:58.161Z,17.40
